Time;durP1;ratioP1;P1;durP2;ratioP2;P2;SDS_P1;SDS_P2;PMS_P1;PMS_P2;Temp;Humidity;BMP_temperature;BMP_pressure;BME280_temperature;BME280_humidity;BME280_pressure;Samples;Min_cycle;Max_cycle;Signal;HPM_P1;HPM_P2
2023/10/13 00:01:41;;;;;;;26.77;18.25;;;20.70;70.60;;;;;;5025695;28;20744;-34
2023/10/13 00:04:08;;;;;;;25.23;17.02;;;20.70;70.60;;;;;;5027712;28;20209;-34
2023/10/13 00:06:37;;;;;;;28.80;17.42;;;20.70;70.70;;;;;;5019874;28;20198;-34
2023/10/13 00:09:04;;;;;;;23.35;18.27;;;20.70;70.70;;;;;;5009896;28;20375;-34
2023/10/13 00:11:34;;;;;;;29.45;18.45;;;20.70;70.70;;;;;;5007064;28;20213;-34
2023/10/13 00:14:04;;;;;;;24.95;18.15;;;20.70;70.70;;;;;;5009298;28;20198;-34
2023/10/13 00:16:34;;;;;;;20.50;16.00;;;20.80;70.80;;;;;;5009873;28;20205;-35
2023/10/13 00:19:06;;;;;;;25.75;17.90;;;20.70;70.80;;;;;;5009091;28;20201;-34
2023/10/13 00:21:36;;;;;;;26.70;18.25;;;20.70;70.80;;;;;;5010582;28;20739;-34
2023/10/13 00:24:12;;;;;;;27.48;18.17;;;20.80;70.90;;;;;;5023956;28;20201;-35
2023/10/13 00:26:42;;;;;;;26.58;19.30;;;20.80;70.90;;;;;;5022036;28;20240;-35
2023/10/13 00:29:18;;;;;;;26.42;18.55;;;20.70;70.90;;;;;;5022030;28;20205;-34
2023/10/13 00:31:48;;;;;;;26.13;17.55;;;20.70;70.90;;;;;;5005794;28;20222;-34
2023/10/13 00:34:24;;;;;;;24.60;17.80;;;20.70;70.90;;;;;;5006016;28;20283;-34
2023/10/13 00:37:17;;;;;;;28.42;18.65;;;20.70;70.90;;;;;;5009336;28;20217;-35
2023/10/13 00:39:45;;;;;;;25.67;17.67;;;20.70;70.90;;;;;;5021405;28;20201;-33
2023/10/13 00:42:33;;;;;;;30.08;18.25;;;20.70;71.00;;;;;;5007015;28;20214;-34
2023/10/13 00:45:04;;;;;;;30.33;18.85;;;20.70;71.00;;;;;;5007291;28;20624;-33
2023/10/13 00:50:05;;;;;;;23.60;18.00;;;20.70;71.10;;;;;;5007251;28;20680;-34
2023/10/13 00:52:35;;;;;;;31.85;20.13;;;20.70;71.10;;;;;;5010281;28;20236;-34
2023/10/13 00:55:08;;;;;;;24.77;18.95;;;20.70;71.20;;;;;;5005494;28;20264;-34
2023/10/13 00:57:36;;;;;;;27.67;18.88;;;20.70;71.20;;;;;;5005880;28;20201;-34
2023/10/13 01:03:06;;;;;;;24.23;16.58;;;20.70;71.20;;;;;;5023748;28;20331;-34
2023/10/13 01:05:37;;;;;;;27.23;16.88;;;20.70;71.20;;;;;;5029449;28;20929;-33
2023/10/13 01:08:04;;;;;;;22.70;17.40;;;20.70;71.20;;;;;;5021421;28;20220;-34
2023/10/13 01:10:37;;;;;;;27.58;17.00;;;20.70;71.20;;;;;;5043571;28;20289;-33
2023/10/13 01:13:07;;;;;;;25.27;16.70;;;20.70;71.20;;;;;;5042308;28;20728;-33
2023/10/13 01:15:36;;;;;;;29.50;17.90;;;20.80;71.40;;;;;;5017969;28;20575;-33
2023/10/13 01:18:11;;;;;;;26.65;17.27;;;20.80;71.40;;;;;;5011587;28;20305;-34
2023/10/13 01:20:46;;;;;;;20.00;15.82;;;20.80;71.50;;;;;;5024572;28;20609;-34
2023/10/13 01:23:24;;;;;;;25.13;16.33;;;20.80;71.40;;;;;;5014966;28;20279;-33
2023/10/13 01:25:53;;;;;;;21.00;15.98;;;20.80;71.50;;;;;;5025994;28;20624;-33
2023/10/13 01:28:23;;;;;;;24.45;17.83;;;20.80;71.40;;;;;;5022814;28;20213;-33
2023/10/13 01:30:53;;;;;;;24.27;16.85;;;20.80;71.40;;;;;;5024405;28;20600;-33
2023/10/13 01:33:27;;;;;;;21.02;15.82;;;20.80;71.50;;;;;;5024085;28;20213;-33
2023/10/13 01:35:58;;;;;;;26.00;16.75;;;20.80;71.50;;;;;;5025303;28;20568;-34
2023/10/13 01:38:27;;;;;;;22.88;15.57;;;20.80;71.50;;;;;;5020392;28;20213;-33
2023/10/13 01:40:58;;;;;;;23.25;16.70;;;20.80;71.50;;;;;;5020600;28;20291;-33
2023/10/13 01:43:26;;;;;;;23.30;16.70;;;20.80;71.60;;;;;;5025023;28;20296;-33
2023/10/13 01:45:55;;;;;;;21.98;15.77;;;20.80;71.60;;;;;;5025608;28;20293;-33
2023/10/13 01:48:22;;;;;;;23.08;15.68;;;20.80;71.60;;;;;;5024565;28;20331;-33
2023/10/13 01:50:59;;;;;;;27.08;15.73;;;20.80;71.50;;;;;;5025700;28;20311;-33
2023/10/13 01:53:29;;;;;;;22.13;15.00;;;20.80;71.70;;;;;;5022854;28;20307;-33
2023/10/13 01:55:59;;;;;;;24.75;15.15;;;20.80;71.60;;;;;;5025123;28;20209;-33
2023/10/13 01:58:28;;;;;;;22.77;14.07;;;20.80;71.60;;;;;;5020214;28;20220;-33
2023/10/13 02:00:59;;;;;;;21.63;14.07;;;20.80;71.70;;;;;;4991705;28;20202;-32
2023/10/13 02:03:29;;;;;;;22.48;13.98;;;20.80;71.70;;;;;;5008685;28;20205;-33
2023/10/13 02:06:03;;;;;;;20.15;13.80;;;20.80;71.70;;;;;;5008271;28;21062;-33
2023/10/13 02:08:31;;;;;;;17.55;12.93;;;20.80;71.70;;;;;;5007782;28;20201;-33
2023/10/13 02:11:01;;;;;;;19.08;13.30;;;20.80;71.70;;;;;;5004375;28;20198;-33
2023/10/13 02:13:30;;;;;;;18.05;13.20;;;20.80;71.80;;;;;;5004961;28;20225;-33
2023/10/13 02:16:03;;;;;;;24.52;13.80;;;20.80;71.80;;;;;;5004035;28;20663;-33
2023/10/13 02:18:41;;;;;;;20.92;13.80;;;20.80;71.80;;;;;;5005760;28;20670;-33
2023/10/13 02:21:16;;;;;;;19.88;13.68;;;20.80;71.80;;;;;;5004089;28;20204;-33
2023/10/13 02:23:46;;;;;;;17.05;12.70;;;20.80;71.80;;;;;;4991356;28;20248;-33
2023/10/13 02:26:30;;;;;;;18.27;11.85;;;20.80;71.80;;;;;;5004368;28;20193;-32
2023/10/13 02:29:07;;;;;;;18.73;13.63;;;20.80;71.80;;;;;;5018389;28;20625;-33
2023/10/13 02:31:42;;;;;;;18.17;13.90;;;20.80;71.90;;;;;;5024733;28;20212;-33
2023/10/13 02:34:12;;;;;;;20.80;13.23;;;20.80;71.80;;;;;;5023707;28;20726;-33
2023/10/13 02:36:49;;;;;;;17.77;12.68;;;20.80;71.90;;;;;;5024805;28;20863;-33
2023/10/13 02:39:17;;;;;;;24.02;13.32;;;20.80;71.90;;;;;;5015339;28;20217;-33
2023/10/13 02:41:50;;;;;;;22.38;13.40;;;20.80;71.90;;;;;;5002508;28;20216;-33
2023/10/13 02:44:26;;;;;;;17.00;11.68;;;20.80;71.90;;;;;;4988387;28;20201;-33
2023/10/13 02:47:13;;;;;;;16.42;12.65;;;20.80;71.90;;;;;;5009959;28;20204;-33
2023/10/13 02:49:46;;;;;;;16.65;12.85;;;20.80;72.00;;;;;;5019585;28;20758;-33
2023/10/13 02:52:15;;;;;;;20.88;12.40;;;20.80;71.90;;;;;;5011583;28;20599;-33
2023/10/13 02:54:50;;;;;;;16.20;11.57;;;20.80;72.00;;;;;;5011919;28;20201;-33
2023/10/13 02:57:18;;;;;;;19.63;12.27;;;20.90;72.00;;;;;;5010564;28;20213;-33
2023/10/13 02:59:57;;;;;;;19.00;12.43;;;20.90;72.10;;;;;;5010810;28;20205;-33
2023/10/13 03:02:29;;;;;;;22.10;12.38;;;20.90;72.10;;;;;;5012072;28;20237;-33
2023/10/13 03:05:08;;;;;;;18.75;11.20;;;20.90;72.20;;;;;;5010634;28;20221;-33
2023/10/13 03:07:42;;;;;;;21.10;11.98;;;20.90;72.10;;;;;;5011106;28;20667;-33
2023/10/13 03:10:10;;;;;;;20.38;12.25;;;20.90;72.10;;;;;;5010811;28;20782;-33
2023/10/13 03:12:39;;;;;;;21.08;12.05;;;20.90;72.20;;;;;;5006914;28;20221;-33
2023/10/13 03:18:02;;;;;;;20.52;12.10;;;20.90;72.10;;;;;;5009928;28;20577;-33
2023/10/13 03:20:31;;;;;;;15.13;10.93;;;20.90;72.40;;;;;;5007388;28;20197;-33
2023/10/13 03:23:09;;;;;;;16.73;12.02;;;20.90;72.20;;;;;;5007802;28;20201;-33
2023/10/13 03:26:08;;;;;;;18.23;11.25;;;20.90;72.20;;;;;;5007823;28;20221;-34
2023/10/13 03:28:33;;;;;;;18.50;10.63;;;20.90;72.20;;;;;;5009292;28;20803;-33
2023/10/13 03:31:03;;;;;;;17.75;10.95;;;20.90;72.30;;;;;;5028387;28;20234;-33
2023/10/13 03:33:33;;;;;;;17.92;10.35;;;20.90;72.20;;;;;;5026737;28;20328;-33
2023/10/13 03:36:05;;;;;;;17.35;10.82;;;20.90;72.40;;;;;;5043209;28;20671;-33
2023/10/13 03:38:36;;;;;;;14.10;10.27;;;20.90;72.30;;;;;;5024939;28;20207;-33
2023/10/13 03:43:45;;;;;;;15.88;10.68;;;20.90;72.40;;;;;;5038517;28;20223;-33
2023/10/13 03:46:21;;;;;;;20.17;11.52;;;20.90;72.30;;;;;;5029463;28;20215;-33
2023/10/13 03:48:54;;;;;;;16.50;10.05;;;20.90;72.50;;;;;;5025874;28;20303;-34
2023/10/13 03:51:30;;;;;;;16.63;9.95;;;20.90;72.40;;;;;;5010038;28;20215;-33
2023/10/13 03:54:07;;;;;;;16.70;9.38;;;20.90;72.50;;;;;;5010895;28;20216;-33
2023/10/13 03:56:41;;;;;;;18.40;10.07;;;20.90;72.50;;;;;;5010380;28;20578;-33
2023/10/13 04:04:34;;;;;;;22.02;10.55;;;20.90;72.50;;;;;;5027685;28;20224;-33
2023/10/13 04:17:45;;;;;;;14.00;7.97;;;20.90;72.60;;;;;;5027951;28;20874;-33
2023/10/13 04:20:12;;;;;;;13.82;7.88;;;20.90;72.70;;;;;;5015940;28;20712;-33
2023/10/13 04:36:36;;;;;;;11.98;6.28;;;21.00;72.70;;;;;;5007883;28;20289;-34
2023/10/13 04:38:59;;;;;;;11.13;5.63;;;21.00;73.00;;;;;;5013260;28;20204;-34
2023/10/13 04:41:37;;;;;;;14.82;6.70;;;21.00;72.80;;;;;;5023358;28;20225;-33
2023/10/13 04:44:52;;;;;;;14.07;6.18;;;21.00;72.80;;;;;;5014693;28;20226;-34
2023/10/13 04:47:17;;;;;;;14.45;6.53;;;21.00;72.90;;;;;;5025864;28;20229;-33
2023/10/13 04:49:51;;;;;;;21.35;6.55;;;21.00;72.90;;;;;;5028720;28;20677;-34
2023/10/13 04:52:44;;;;;;;14.35;6.93;;;21.00;72.90;;;;;;5042917;28;20212;-33
2023/10/13 04:58:11;;;;;;;16.40;6.63;;;21.00;72.80;;;;;;5021468;28;20739;-32
2023/10/13 05:01:23;;;;;;;11.55;6.60;;;21.00;72.80;;;;;;5025970;28;20299;-32
2023/10/13 05:51:33;;;;;;;16.42;6.60;;;20.90;73.10;;;;;;5007413;28;20308;-32
2023/10/13 06:30:21;;;;;;;20.83;6.15;;;20.90;73.30;;;;;;5009389;28;20891;-33
2023/10/13 06:32:50;;;;;;;13.63;6.07;;;20.90;73.40;;;;;;5013881;28;20296;-34
2023/10/13 06:35:24;;;;;;;16.25;5.80;;;20.90;73.40;;;;;;5013382;28;20283;-34
2023/10/13 06:37:53;;;;;;;19.17;6.38;;;20.90;73.30;;;;;;5002920;28;20215;-33
2023/10/13 06:43:12;;;;;;;17.05;5.60;;;21.00;73.30;;;;;;5013239;28;20200;-33
2023/10/13 06:45:43;;;;;;;14.15;6.25;;;21.00;73.30;;;;;;5011704;28;20213;-33
2023/10/13 06:48:12;;;;;;;11.63;5.90;;;21.00;73.30;;;;;;5022339;28;20201;-33
2023/10/13 06:50:41;;;;;;;17.08;6.10;;;21.00;73.30;;;;;;5020237;28;20392;-33
2023/10/13 06:53:12;;;;;;;15.10;5.90;;;21.00;73.30;;;;;;5006482;28;20209;-33
2023/10/13 06:55:46;;;;;;;19.17;6.88;;;21.00;73.30;;;;;;5008882;28;20210;-33
2023/10/13 06:58:14;;;;;;;16.88;7.00;;;21.10;73.30;;;;;;5021625;28;20288;-33
2023/10/13 07:00:52;;;;;;;16.25;6.72;;;21.10;73.30;;;;;;5021145;28;20329;-33
2023/10/13 07:03:22;;;;;;;15.30;6.50;;;21.10;73.20;;;;;;5012113;28;20212;-33
2023/10/13 07:05:50;;;;;;;17.40;5.85;;;21.10;73.20;;;;;;5008210;28;20256;-34
2023/10/13 07:08:21;;;;;;;16.27;6.32;;;21.10;73.20;;;;;;5024074;28;20208;-33
2023/10/13 07:11:19;;;;;;;17.42;6.10;;;21.10;73.10;;;;;;5007840;28;20229;-33
2023/10/13 07:13:50;;;;;;;14.70;6.25;;;21.10;73.30;;;;;;5005890;28;20474;-32
2023/10/13 07:16:18;;;;;;;17.98;6.88;;;21.10;73.20;;;;;;5021249;28;20197;-33
2023/10/13 07:19:04;;;;;;;14.02;6.35;;;21.10;73.20;;;;;;5006780;28;20325;-33
2023/10/13 07:21:45;;;;;;;17.30;6.65;;;21.10;73.20;;;;;;5017299;28;20216;-33
2023/10/13 07:24:15;;;;;;;15.32;6.25;;;21.10;73.20;;;;;;5021129;28;20209;-33
2023/10/13 07:26:45;;;;;;;15.85;5.97;;;21.10;73.20;;;;;;5014030;28;20249;-33
2023/10/13 07:29:15;;;;;;;17.90;6.72;;;21.10;73.20;;;;;;5008324;28;20220;-32
2023/10/13 07:31:44;;;;;;;18.42;6.40;;;21.10;73.30;;;;;;5007424;28;20306;-33
2023/10/13 07:34:31;;;;;;;17.00;7.13;;;21.10;73.20;;;;;;5010137;28;20225;-33
2023/10/13 07:36:59;;;;;;;15.40;6.47;;;21.10;73.30;;;;;;5009523;28;20201;-33
2023/10/13 07:39:34;;;;;;;14.73;6.70;;;21.10;73.20;;;;;;5011724;28;20210;-33
2023/10/13 07:42:15;;;;;;;19.40;6.47;;;21.10;73.20;;;;;;5014998;28;20216;-32
2023/10/13 07:44:55;;;;;;;12.23;6.20;;;21.10;73.20;;;;;;5010174;28;20222;-33
2023/10/13 07:47:24;;;;;;;15.55;7.00;;;21.10;73.20;;;;;;5019292;28;20224;-33
2023/10/13 07:49:56;;;;;;;17.10;6.90;;;21.20;73.30;;;;;;5022987;28;20208;-33
2023/10/13 07:52:36;;;;;;;15.57;7.43;;;21.20;73.20;;;;;;5007472;28;20585;-33
2023/10/13 07:55:11;;;;;;;18.75;6.65;;;21.20;73.20;;;;;;5028041;28;20235;-33
2023/10/13 07:57:56;;;;;;;21.48;6.85;;;21.30;73.20;;;;;;5001915;28;20581;-33
2023/10/13 08:05:58;;;;;;;13.90;6.80;;;21.30;73.80;;;;;;5014546;28;20230;-33
2023/10/13 08:08:26;;;;;;;14.02;6.82;;;21.30;73.10;;;;;;5012817;28;20197;-33
2023/10/13 08:11:00;;;;;;;22.90;6.68;;;21.30;73.20;;;;;;5010533;28;20218;-32
2023/10/13 08:13:36;;;;;;;14.73;6.97;;;21.30;73.00;;;;;;5011481;28;20288;-33
2023/10/13 08:16:22;;;;;;;16.23;7.15;;;21.30;73.10;;;;;;5008779;28;20648;-33
2023/10/13 08:18:50;;;;;;;18.50;7.70;;;21.40;73.20;;;;;;5029922;28;20564;-32
2023/10/13 08:21:31;;;;;;;18.90;7.35;;;21.40;73.10;;;;;;5013667;28;20226;-32
2023/10/13 08:24:05;;;;;;;16.55;7.13;;;21.40;73.20;;;;;;5007833;28;20232;-32
2023/10/13 08:32:14;;;;;;;17.45;6.50;;;21.50;73.00;;;;;;5010191;28;20216;-33
2023/10/13 08:43:10;;;;;;;18.67;7.35;;;21.60;72.80;;;;;;5007385;28;20209;-33
2023/10/13 08:53:32;;;;;;;13.32;6.75;;;21.60;72.70;;;;;;5010527;28;20213;-33
2023/10/13 09:04:27;;;;;;;16.08;6.93;;;21.70;72.50;;;;;;5014254;28;20228;-33
2023/10/13 09:15:05;;;;;;;19.92;6.60;;;21.80;72.40;;;;;;5009644;28;20291;-33
2023/10/13 09:17:51;;;;;;;14.13;6.95;;;21.80;72.40;;;;;;4990073;28;20205;-33
2023/10/13 09:23:24;;;;;;;17.20;7.75;;;21.80;72.30;;;;;;5020727;28;20244;-33
2023/10/13 09:26:12;;;;;;;15.68;7.00;;;21.80;72.20;;;;;;5026698;28;20209;-33
2023/10/13 09:28:53;;;;;;;15.57;7.13;;;21.80;72.40;;;;;;5016367;28;20212;-33
2023/10/13 09:31:26;;;;;;;18.38;7.82;;;21.90;72.30;;;;;;5023803;28;20216;-33
2023/10/13 09:33:55;;;;;;;14.73;7.53;;;21.90;72.20;;;;;;5011417;28;20211;-33
2023/10/13 09:36:23;;;;;;;15.20;7.38;;;21.90;72.30;;;;;;5007479;28;20830;-32
2023/10/13 09:39:29;;;;;;;13.90;6.97;;;21.90;72.20;;;;;;5012624;28;20670;-33
2023/10/13 09:41:53;;;;;;;16.80;7.25;;;21.90;72.20;;;;;;5015846;28;20228;-33
2023/10/13 09:44:21;;;;;;;14.95;6.47;;;22.00;72.30;;;;;;5016809;28;20232;-33
2023/10/13 09:46:49;;;;;;;16.20;7.60;;;22.00;72.10;;;;;;5012137;28;20209;-34
2023/10/13 09:49:44;;;;;;;16.52;7.32;;;22.00;72.10;;;;;;5021579;28;20212;-33
2023/10/13 09:52:25;;;;;;;18.13;7.47;;;22.00;71.90;;;;;;5014114;28;20197;-34
2023/10/13 09:55:18;;;;;;;15.07;7.10;;;22.00;71.90;;;;;;5013070;28;21953;-35
2023/10/13 09:57:57;;;;;;;16.10;7.68;;;22.10;71.90;;;;;;5008345;28;20202;-33
2023/10/13 10:06:05;;;;;;;13.93;7.32;;;22.20;71.90;;;;;;5016622;28;20312;-34
2023/10/13 10:08:34;;;;;;;16.35;7.55;;;22.20;71.90;;;;;;5019569;28;20260;-33
2023/10/13 10:11:26;;;;;;;18.50;7.25;;;22.20;72.00;;;;;;5006746;28;20237;-30
2023/10/13 10:13:57;;;;;;;16.70;6.90;;;22.30;71.80;;;;;;5008947;28;20209;-30
2023/10/13 10:16:36;;;;;;;14.70;7.57;;;22.30;71.80;;;;;;5011962;28;20224;-30
2023/10/13 10:19:07;;;;;;;13.90;6.97;;;22.30;71.70;;;;;;5014538;28;20636;-30
2023/10/13 10:21:38;;;;;;;15.95;6.85;;;22.40;71.80;;;;;;5016180;28;20313;-31
2023/10/13 10:24:36;;;;;;;16.00;6.97;;;22.40;71.80;;;;;;4997695;28;20240;-31
2023/10/13 10:27:06;;;;;;;17.58;6.78;;;22.40;71.70;;;;;;5017983;28;20244;-30
2023/10/13 10:29:37;;;;;;;14.73;6.88;;;22.50;71.70;;;;;;5013770;28;20210;-30
2023/10/13 10:32:15;;;;;;;14.20;6.75;;;22.50;71.70;;;;;;5007968;28;21022;-31
2023/10/13 10:34:42;;;;;;;13.85;6.75;;;22.60;71.70;;;;;;5006010;28;20312;-30
2023/10/13 10:37:10;;;;;;;12.48;6.97;;;22.60;71.70;;;;;;5009132;28;20746;-30
2023/10/13 10:39:46;;;;;;;14.60;6.90;;;22.60;71.60;;;;;;5006269;28;20206;-30
2023/10/13 10:42:16;;;;;;;14.63;6.60;;;22.60;71.60;;;;;;5008726;28;20968;-31
2023/10/13 10:44:43;;;;;;;18.15;6.85;;;22.70;71.60;;;;;;5020618;28;20205;-30
2023/10/13 10:47:48;;;;;;;12.80;6.90;;;22.70;71.40;;;;;;5014192;28;20209;-30
2023/10/13 10:50:19;;;;;;;14.65;6.55;;;22.70;71.30;;;;;;5010020;28;20668;-30
2023/10/13 10:52:47;;;;;;;21.88;6.82;;;22.80;72.20;;;;;;5012223;28;20672;-30
2023/10/13 10:55:27;;;;;;;16.35;6.45;;;22.80;71.30;;;;;;5030743;28;20221;-30
2023/10/13 10:58:06;;;;;;;19.15;6.80;;;22.80;71.30;;;;;;5012141;28;20307;-29
2023/10/13 11:00:45;;;;;;;18.50;6.53;;;22.90;71.10;;;;;;5019291;28;20294;-30
2023/10/13 11:03:15;;;;;;;18.55;6.50;;;22.90;71.20;;;;;;5016098;28;20209;-29
2023/10/13 11:05:46;;;;;;;12.32;6.53;;;22.90;71.20;;;;;;5017234;28;20761;-30
2023/10/13 11:08:31;;;;;;;16.40;7.30;;;23.00;71.20;;;;;;5016195;28;21046;-29
2023/10/13 11:11:01;;;;;;;19.45;6.90;;;23.00;71.00;;;;;;5024706;28;20267;-30
2023/10/13 11:13:50;;;;;;;18.10;6.95;;;23.10;71.10;;;;;;5020309;28;20206;-30
2023/10/13 11:16:33;;;;;;;25.33;7.13;;;23.10;70.90;;;;;;5030041;28;20232;-30
2023/10/13 11:19:07;;;;;;;16.25;6.40;;;23.10;70.70;;;;;;5014920;28;20336;-29
2023/10/13 11:21:38;;;;;;;20.30;7.18;;;23.20;70.80;;;;;;5013429;28;20750;-29
2023/10/13 11:24:11;;;;;;;23.23;7.35;;;23.20;70.80;;;;;;5017213;28;20190;-30
2023/10/13 11:26:50;;;;;;;19.35;6.85;;;23.30;70.80;;;;;;5030968;28;20201;-29
2023/10/13 11:29:19;;;;;;;17.95;6.65;;;23.30;70.40;;;;;;5010134;28;20573;-30
2023/10/13 11:31:53;;;;;;;18.58;6.43;;;23.30;70.40;;;;;;5010110;28;20213;-30
2023/10/13 11:34:23;;;;;;;17.70;7.35;;;23.40;70.30;;;;;;5005933;28;20884;-29
2023/10/13 11:36:55;;;;;;;20.73;6.60;;;23.40;71.30;;;;;;5018538;28;20513;-30
2023/10/13 11:39:25;;;;;;;20.38;6.93;;;23.40;70.30;;;;;;5031133;28;20183;-30
2023/10/13 11:41:55;;;;;;;21.77;7.28;;;23.40;70.10;;;;;;5029917;28;20632;-30
2023/10/13 11:44:26;;;;;;;18.85;7.20;;;23.50;70.20;;;;;;5027961;28;20251;-30
2023/10/13 11:46:56;;;;;;;18.83;7.10;;;23.50;70.10;;;;;;5027676;28;20307;-29
2023/10/13 11:52:08;;;;;;;19.75;7.10;;;23.60;69.80;;;;;;5022845;28;20735;-29
2023/10/13 11:54:41;;;;;;;20.60;7.07;;;23.60;69.90;;;;;;5019415;28;20223;-30
2023/10/13 11:57:11;;;;;;;22.50;7.78;;;23.60;69.50;;;;;;5027758;28;20209;-30
2023/10/13 11:59:45;;;;;;;22.00;7.88;;;23.60;69.60;;;;;;5001218;28;20201;-29
2023/10/13 12:04:57;;;;;;;27.65;8.25;;;23.60;69.40;;;;;;5011750;28;20572;-34
2023/10/13 12:07:27;;;;;;;15.57;6.72;;;23.70;69.00;;;;;;5016760;28;20771;-34
2023/10/13 12:12:26;;;;;;;23.70;6.82;;;23.70;69.10;;;;;;5010974;28;20205;-33
2023/10/13 12:14:56;;;;;;;17.30;6.35;;;23.70;68.90;;;;;;5001826;28;20305;-40
2023/10/13 12:17:31;;;;;;;19.35;6.57;;;23.70;68.70;;;;;;5019104;28;20726;-33
2023/10/13 12:19:59;;;;;;;21.25;6.50;;;23.70;68.40;;;;;;5015150;28;20205;-33
2023/10/13 12:22:35;;;;;;;16.92;6.93;;;23.70;68.50;;;;;;5019239;28;20268;-33
2023/10/13 12:27:57;;;;;;;20.15;6.95;;;23.80;68.60;;;;;;5012781;28;20216;-33
2023/10/13 12:33:16;;;;;;;16.15;6.10;;;23.80;68.30;;;;;;5018070;28;20254;-33
2023/10/13 12:36:53;;;;;;;14.93;6.60;;;23.80;68.20;;;;;;5012013;28;20221;-33
2023/10/13 12:52:25;;;;;;;15.35;6.80;;;23.80;68.00;;;;;;5022911;28;20309;-33
2023/10/13 12:57:27;;;;;;;16.52;5.95;;;23.80;68.00;;;;;;5028776;28;20201;-33
2023/10/13 12:59:57;;;;;;;13.13;6.35;;;23.80;68.00;;;;;;5016079;28;21031;-33
2023/10/13 13:02:27;;;;;;;18.17;6.55;;;23.80;67.80;;;;;;5009200;28;20233;-34
2023/10/13 13:05:11;;;;;;;15.25;6.10;;;23.80;67.60;;;;;;4989498;28;20209;-33
2023/10/13 13:07:52;;;;;;;15.43;6.22;;;23.80;67.60;;;;;;5025881;28;20278;-34
2023/10/13 13:10:34;;;;;;;16.48;6.18;;;23.80;67.50;;;;;;5032413;28;20205;-33
2023/10/13 13:13:05;;;;;;;30.23;16.05;;;23.80;67.60;;;;;;5015574;28;20733;-33
2023/10/13 13:15:33;;;;;;;18.17;9.68;;;23.80;67.40;;;;;;5007832;28;20299;-33
2023/10/13 13:18:09;;;;;;;18.88;8.55;;;23.70;67.20;;;;;;5011393;28;20288;-34
2023/10/13 13:20:52;;;;;;;18.52;8.77;;;23.70;67.00;;;;;;5023382;28;20298;-33
2023/10/13 13:23:26;;;;;;;12.43;6.60;;;23.70;67.10;;;;;;5014782;28;20212;-33
2023/10/13 13:25:56;;;;;;;17.85;6.93;;;23.70;67.40;;;;;;5028020;28;20209;-33
2023/10/13 13:28:28;;;;;;;16.95;6.70;;;23.70;66.90;;;;;;5008165;28;20680;-33
2023/10/13 13:30:58;;;;;;;13.75;7.30;;;23.70;67.00;;;;;;5022406;28;20213;-34
2023/10/13 13:33:26;;;;;;;15.23;6.35;;;23.70;67.00;;;;;;5012174;28;20217;-33
2023/10/13 13:35:59;;;;;;;16.10;5.97;;;23.70;67.20;;;;;;5029090;28;20244;-34
2023/10/13 13:38:31;;;;;;;17.08;6.30;;;23.70;67.20;;;;;;5027699;28;20201;-33
2023/10/13 13:41:03;;;;;;;20.77;6.05;;;23.70;66.90;;;;;;5028405;28;20197;-33
2023/10/13 13:43:38;;;;;;;13.63;7.60;;;23.80;67.10;;;;;;5021616;28;20302;-33
2023/10/13 13:46:11;;;;;;;14.95;6.60;;;23.80;66.50;;;;;;5020291;28;20205;-30
2023/10/13 13:48:40;;;;;;;18.42;6.22;;;23.80;66.30;;;;;;5027472;28;20204;-29
2023/10/13 13:51:14;;;;;;;16.13;5.72;;;23.80;67.50;;;;;;5012935;28;20588;-29
2023/10/13 13:53:45;;;;;;;18.15;6.10;;;23.80;66.60;;;;;;5010297;28;20685;-29
2023/10/13 13:56:16;;;;;;;12.60;6.28;;;23.80;65.90;;;;;;5011486;28;20229;-30
2023/10/13 13:58:50;;;;;;;14.65;6.07;;;23.80;66.40;;;;;;5018897;28;20560;-29
2023/10/13 14:01:26;;;;;;;15.85;6.07;;;23.70;66.30;;;;;;5022840;28;20976;-29
2023/10/13 14:04:02;;;;;;;11.45;5.85;;;23.70;66.20;;;;;;5015347;28;20268;-30
2023/10/13 14:06:29;;;;;;;11.75;5.57;;;23.80;65.70;;;;;;5023261;28;20750;-29
2023/10/13 14:09:32;;;;;;;14.90;5.72;;;23.70;65.80;;;;;;5017913;28;20237;-29
2023/10/13 14:14:49;;;;;;;9.60;5.85;;;23.80;66.00;;;;;;5019963;28;20224;-29
2023/10/13 14:17:16;;;;;;;18.55;6.43;;;23.80;66.10;;;;;;5024691;28;20220;-29
2023/10/13 14:19:45;;;;;;;11.93;5.80;;;23.80;66.30;;;;;;5024383;28;20259;-29
2023/10/13 14:22:15;;;;;;;19.90;6.30;;;23.80;66.00;;;;;;5013802;28;20206;-30
2023/10/13 14:24:51;;;;;;;13.95;5.47;;;23.80;66.20;;;;;;5016144;28;20710;-29
2023/10/13 14:27:23;;;;;;;16.38;5.45;;;23.80;66.30;;;;;;5011550;28;20197;-30
2023/10/13 14:29:56;;;;;;;12.18;5.25;;;23.80;66.00;;;;;;5007144;28;20205;-29
2023/10/13 14:32:26;;;;;;;13.32;5.72;;;23.80;65.60;;;;;;5015767;28;20205;-29
2023/10/13 14:34:56;;;;;;;12.13;5.50;;;23.80;65.80;;;;;;5006236;28;20201;-29
2023/10/13 14:37:28;;;;;;;14.23;5.90;;;23.80;65.90;;;;;;5007868;28;20201;-30
2023/10/13 14:40:01;;;;;;;14.80;5.82;;;23.80;66.00;;;;;;5008949;28;20272;-30
2023/10/13 14:42:29;;;;;;;16.38;5.80;;;23.80;65.90;;;;;;5027661;28;20189;-30
2023/10/13 14:44:56;;;;;;;12.95;6.00;;;23.80;65.60;;;;;;5012916;28;20209;-29
2023/10/13 14:47:27;;;;;;;16.38;5.70;;;23.90;65.40;;;;;;5006488;28;20267;-30
2023/10/13 14:49:55;;;;;;;12.27;5.90;;;23.90;65.40;;;;;;5011810;28;20213;-29
2023/10/13 14:52:23;;;;;;;13.95;5.43;;;23.90;65.70;;;;;;5021609;28;20296;-29
2023/10/13 14:54:55;;;;;;;15.07;5.82;;;23.90;65.30;;;;;;5030744;28;20210;-29
2023/10/13 14:57:25;;;;;;;12.38;5.40;;;23.90;65.30;;;;;;5003013;28;20267;-29
2023/10/13 14:59:55;;;;;;;13.57;5.82;;;23.90;65.40;;;;;;5007721;28;20204;-29
2023/10/13 15:02:22;;;;;;;11.52;5.75;;;23.90;65.10;;;;;;5014859;28;20253;-30
2023/10/13 15:04:50;;;;;;;12.88;5.90;;;23.90;65.20;;;;;;5002813;28;20303;-29
2023/10/13 15:07:19;;;;;;;14.55;5.18;;;23.90;65.20;;;;;;5006166;28;20251;-30
2023/10/13 15:09:46;;;;;;;14.23;6.30;;;23.90;66.20;;;;;;5004462;28;20300;-29
2023/10/13 15:12:20;;;;;;;10.77;5.65;;;23.80;65.00;;;;;;4998363;28;20684;-29
2023/10/13 15:14:56;;;;;;;12.35;6.22;;;23.80;65.00;;;;;;5014550;28;20221;-29
2023/10/13 15:17:24;;;;;;;15.32;5.93;;;23.80;65.10;;;;;;5002844;28;20646;-30
2023/10/13 15:19:54;;;;;;;11.00;5.72;;;23.80;65.20;;;;;;5008173;28;20240;-30
2023/10/13 15:22:25;;;;;;;14.10;6.50;;;23.80;65.20;;;;;;5007840;28;20212;-29
2023/10/13 15:25:49;;;;;;;11.65;5.28;;;23.80;65.30;;;;;;5009374;28;20324;-30
2023/10/13 15:27:55;;;;;;;13.77;6.28;;;23.80;65.10;;;;;;5007826;28;20295;-29
2023/10/13 15:30:30;;;;;;;14.27;5.95;;;23.80;65.10;;;;;;5009799;28;20679;-29
2023/10/13 15:32:58;;;;;;;10.90;5.93;;;23.80;65.00;;;;;;5010102;28;20713;-29
2023/10/13 15:35:31;;;;;;;10.10;6.32;;;23.80;65.00;;;;;;5007234;28;20206;-29
2023/10/13 15:38:01;;;;;;;12.95;5.88;;;23.70;64.90;;;;;;5019932;28;20225;-29
2023/10/13 15:40:31;;;;;;;15.48;6.32;;;23.70;64.80;;;;;;5006836;28;20239;-30
2023/10/13 15:43:00;;;;;;;9.93;5.97;;;23.70;64.80;;;;;;5011741;28;20309;-29
2023/10/13 15:45:38;;;;;;;12.23;6.00;;;23.70;64.80;;;;;;5016880;28;20199;-30
2023/10/13 15:48:06;;;;;;;12.90;6.13;;;23.70;64.50;;;;;;5003610;28;20210;-30
2023/10/13 15:50:41;;;;;;;9.88;5.82;;;23.60;64.70;;;;;;4996567;28;20225;-29
2023/10/13 15:53:12;;;;;;;15.90;6.28;;;23.60;64.60;;;;;;4995759;28;20205;-29
2023/10/13 15:55:45;;;;;;;11.43;5.80;;;23.60;64.70;;;;;;5010141;28;20225;-30
2023/10/13 15:58:16;;;;;;;11.48;6.07;;;23.60;64.60;;;;;;5002527;28;20202;-30
2023/10/13 16:00:44;;;;;;;11.25;6.15;;;23.50;64.60;;;;;;5004107;28;20247;-30
2023/10/13 16:03:14;;;;;;;13.57;6.47;;;23.50;65.40;;;;;;5013067;28;20252;-29
2023/10/13 16:05:43;;;;;;;11.07;6.22;;;23.50;64.50;;;;;;5011423;28;20201;-29
2023/10/13 16:08:13;;;;;;;13.10;6.47;;;23.50;64.40;;;;;;5023581;28;20304;-29
2023/10/13 16:10:41;;;;;;;11.55;6.05;;;23.40;64.40;;;;;;5023602;28;20247;-29
2023/10/13 16:13:15;;;;;;;14.35;5.78;;;23.40;64.60;;;;;;5011608;28;20198;-29
2023/10/13 16:15:47;;;;;;;14.57;6.70;;;23.40;64.50;;;;;;5009397;28;20307;-29
2023/10/13 16:18:20;;;;;;;13.32;6.43;;;23.30;64.40;;;;;;5013084;28;20209;-29
2023/10/13 16:20:50;;;;;;;17.13;6.60;;;23.30;64.30;;;;;;5025705;28;20608;-33
2023/10/13 16:23:20;;;;;;;10.52;5.60;;;23.30;64.40;;;;;;5010839;28;20197;-33
2023/10/13 16:25:50;;;;;;;11.25;5.78;;;23.30;64.50;;;;;;5009677;28;20236;-33
2023/10/13 16:28:22;;;;;;;10.55;5.60;;;23.30;64.50;;;;;;5010102;28;20784;-34
2023/10/13 16:30:55;;;;;;;15.55;6.78;;;23.20;64.30;;;;;;5010834;28;21055;-33
2023/10/13 16:33:23;;;;;;;16.05;5.80;;;23.20;64.00;;;;;;5014155;28;20707;-29
2023/10/13 16:35:53;;;;;;;13.77;5.95;;;23.20;64.30;;;;;;5009435;28;20225;-33
2023/10/13 16:38:26;;;;;;;15.05;6.47;;;23.20;64.30;;;;;;5012601;28;20284;-33
2023/10/13 16:40:56;;;;;;;14.98;6.78;;;23.10;64.20;;;;;;5023240;28;20206;-33